createdAt,value
2022-08-17T00:00:16.575Z,99439.84
2022-08-17T00:03:01.281Z,99448.34
2022-08-17T00:05:32.192Z,99453.72
2022-08-17T00:07:59.621Z,99447.28
2022-08-17T00:10:27.065Z,99440.19
2022-08-17T00:12:54.214Z,99466.44
2022-08-17T00:15:22.913Z,99427.31
2022-08-17T00:17:51.547Z,99428.50
2022-08-17T00:20:19.346Z,99405.16
2022-08-17T00:22:50.474Z,99447.44
2022-08-17T00:25:30.926Z,99421.44
2022-08-17T00:27:58.116Z,99457.44
2022-08-17T00:30:25.134Z,99422.53
2022-08-17T00:33:22.893Z,99426.03
2022-08-17T00:35:40.661Z,99419.19
2022-08-17T00:38:08.387Z,99411.09
2022-08-17T00:40:44.607Z,99416.19
2022-08-17T00:43:36.559Z,99423.00
2022-08-17T00:46:13.880Z,99411.75
2022-08-17T00:48:42.051Z,99403.38
2022-08-17T00:51:20.605Z,99419.03
2022-08-17T00:53:57.954Z,99376.31
2022-08-17T00:56:30.390Z,99400.28
2022-08-17T00:58:58.011Z,99374.66
2022-08-17T01:01:25.507Z,99388.50
2022-08-17T01:03:55.626Z,99384.94
2022-08-17T01:06:28.393Z,99386.25
2022-08-17T01:08:57.922Z,99379.38
2022-08-17T01:11:25.945Z,99389.47
2022-08-17T01:13:52.861Z,99378.38
2022-08-17T01:16:29.218Z,99387.28
2022-08-17T01:19:00.371Z,99393.25
2022-08-17T01:21:45.821Z,99368.31
2022-08-17T01:24:12.761Z,99370.59
2022-08-17T01:26:41.430Z,99387.22
2022-08-17T01:29:09.378Z,99380.78
2022-08-17T01:31:41.267Z,99371.63
2022-08-17T01:34:10.702Z,99362.38
2022-08-17T01:36:40.521Z,99386.38
2022-08-17T01:39:11.997Z,99373.09
2022-08-17T01:41:40.900Z,99374.88
2022-08-17T01:44:11.562Z,99356.75
2022-08-17T01:46:38.598Z,99375.03
2022-08-17T01:49:09.489Z,99366.00
2022-08-17T01:51:37.331Z,99373.19
2022-08-17T01:54:08.569Z,99371.47
2022-08-17T01:56:54.110Z,99375.81
2022-08-17T01:59:21.343Z,99374.41
2022-08-17T02:01:48.401Z,99364.25
2022-08-17T02:04:15.671Z,99376.06
2022-08-17T02:06:53.638Z,99373.75
2022-08-17T02:09:29.796Z,99348.06
2022-08-17T02:11:59.342Z,99373.97
2022-08-17T02:14:26.279Z,99363.53
2022-08-17T02:16:53.866Z,99375.16
2022-08-17T02:19:20.896Z,99351.03
2022-08-17T02:21:50.408Z,99350.78
2022-08-17T02:24:58.570Z,99346.44
2022-08-17T02:27:13.596Z,99363.25
2022-08-17T02:29:40.449Z,99341.50
2022-08-17T02:32:28.243Z,99340.69
2022-08-17T02:34:57.435Z,99340.50
2022-08-17T02:37:25.721Z,99343.94
2022-08-17T02:39:52.750Z,99335.16
2022-08-17T02:42:30.508Z,99339.22
2022-08-17T02:44:57.685Z,99329.97
2022-08-17T02:47:25.310Z,99343.28
2022-08-17T02:49:55.499Z,99344.75
2022-08-17T02:52:42.506Z,99331.00
2022-08-17T02:55:17.936Z,99342.56
2022-08-17T02:57:45.346Z,99335.63
2022-08-17T03:00:16.956Z,99336.06
2022-08-17T03:02:45.571Z,99344.50
2022-08-17T03:05:15.960Z,99340.13
2022-08-17T03:07:43.001Z,99352.53
2022-08-17T03:10:11.179Z,99356.44
2022-08-17T03:12:40.248Z,99350.03
2022-08-17T03:15:10.710Z,99361.50
2022-08-17T03:17:37.811Z,99349.50
2022-08-17T03:20:06.339Z,99336.53
2022-08-17T03:22:41.448Z,99331.66
2022-08-17T03:25:19.589Z,99343.28
2022-08-17T03:27:51.442Z,99348.66
2022-08-17T03:30:18.434Z,99361.25
2022-08-17T03:32:50.016Z,99392.16
2022-08-17T03:35:20.241Z,99371.13
2022-08-17T03:37:56.983Z,99354.19
2022-08-17T03:40:55.038Z,99370.06
2022-08-17T03:43:15.684Z,99372.97
2022-08-17T03:45:43.253Z,99355.00
2022-08-17T03:48:11.099Z,99366.31
2022-08-17T03:50:37.992Z,99373.38
2022-08-17T03:53:10.544Z,99374.88
2022-08-17T03:55:38.729Z,99355.75
2022-08-17T03:58:05.588Z,99371.59
2022-08-17T04:00:32.466Z,99377.06
2022-08-17T04:02:59.326Z,99376.31
2022-08-17T04:05:26.275Z,99372.88
2022-08-17T04:07:53.063Z,99371.25
2022-08-17T04:10:22.714Z,99381.78
2022-08-17T04:12:54.982Z,99367.97
2022-08-17T04:15:22.480Z,99366.94
2022-08-17T04:17:49.341Z,99387.44
2022-08-17T04:20:19.126Z,99361.38
2022-08-17T04:23:17.124Z,99366.81
2022-08-17T04:25:47.750Z,99361.56
2022-08-17T04:28:16.074Z,99359.44
2022-08-17T04:30:44.560Z,99356.19
2022-08-17T04:33:14.997Z,99349.94
2022-08-17T04:35:45.956Z,99361.22
2022-08-17T04:38:16.060Z,99360.03
2022-08-17T04:40:44.149Z,99360.19
2022-08-17T04:43:12.723Z,99359.25
2022-08-17T04:46:00.580Z,99361.16
2022-08-17T04:48:37.083Z,99369.25
2022-08-17T04:51:11.149Z,99345.34
2022-08-17T04:53:40.898Z,99354.22
2022-08-17T04:56:16.033Z,99341.31
2022-08-17T04:58:53.439Z,99349.97
2022-08-17T05:01:23.769Z,99353.47
2022-08-17T05:03:58.674Z,99350.59
2022-08-17T05:06:27.616Z,99350.44
2022-08-17T05:08:55.657Z,99347.91
2022-08-17T05:11:24.592Z,99330.00
2022-08-17T05:13:51.612Z,99324.78
2022-08-17T05:16:20.195Z,99333.84
2022-08-17T05:18:47.278Z,99348.22
2022-08-17T05:21:18.131Z,99332.94
2022-08-17T05:23:47.161Z,99340.69
2022-08-17T05:26:26.973Z,99316.91
2022-08-17T05:29:02.505Z,99340.13
2022-08-17T05:31:42.773Z,99334.81
2022-08-17T05:34:09.608Z,99356.41
2022-08-17T05:36:43.191Z,99354.50
2022-08-17T05:39:15.896Z,99332.47
2022-08-17T05:41:46.065Z,99361.63
2022-08-17T05:44:12.841Z,99334.66
2022-08-17T05:46:43.738Z,99360.97
2022-08-17T05:49:14.195Z,99325.00
2022-08-17T05:52:00.004Z,99349.84
2022-08-17T05:54:46.393Z,99353.06
2022-08-17T05:57:22.185Z,99330.38
2022-08-17T06:00:30.158Z,99350.97
2022-08-17T06:03:15.441Z,99329.72
2022-08-17T06:05:54.454Z,99336.03
2022-08-17T06:08:39.754Z,99343.34
2022-08-17T06:11:28.420Z,99350.13
2022-08-17T06:14:32.990Z,99350.72
2022-08-17T06:17:06.261Z,99351.66
2022-08-17T06:19:40.013Z,99346.97
2022-08-17T06:22:11.097Z,99359.00
2022-08-17T06:24:48.514Z,99365.59
2022-08-17T06:27:47.522Z,99376.22
2022-08-17T06:30:27.222Z,99371.97
2022-08-17T06:33:19.341Z,99369.25
2022-08-17T06:35:56.676Z,99384.72
2022-08-17T06:38:49.797Z,99389.91
2022-08-17T06:41:39.607Z,99400.47
2022-08-17T06:44:12.927Z,99378.28
2022-08-17T06:47:11.047Z,99382.13
2022-08-17T06:49:55.252Z,99401.63
2022-08-17T06:52:45.933Z,99389.06
2022-08-17T06:55:37.302Z,99382.56
2022-08-17T06:58:16.165Z,99361.28
2022-08-17T07:00:47.675Z,99385.75
2022-08-17T07:04:00.445Z,99384.88
2022-08-17T07:06:40.786Z,99378.09
2022-08-17T07:09:48.783Z,99379.47
2022-08-17T07:12:21.715Z,99358.09
2022-08-17T07:15:03.696Z,99388.00
2022-08-17T07:17:47.869Z,99376.03
2022-08-17T07:20:20.395Z,99383.41
2022-08-17T07:23:05.213Z,99362.50
2022-08-17T07:25:32.563Z,99354.16
2022-08-17T07:28:03.175Z,99372.31
2022-08-17T07:30:44.616Z,99354.38
2022-08-17T07:33:34.707Z,99354.94
2022-08-17T07:36:01.668Z,99382.25
2022-08-17T07:38:31.264Z,99379.63
2022-08-17T07:40:58.273Z,99365.38
2022-08-17T07:43:47.834Z,99344.69
2022-08-17T07:46:18.929Z,99354.72
2022-08-17T07:48:53.211Z,99340.53
2022-08-17T07:51:24.973Z,99360.13
2022-08-17T07:53:53.885Z,99353.47
2022-08-17T07:56:50.198Z,99402.84
2022-08-17T07:59:23.757Z,99386.63
2022-08-17T08:01:57.722Z,99386.03
2022-08-17T08:07:19.938Z,99381.44
2022-08-17T08:09:59.734Z,99384.47
2022-08-17T08:12:40.529Z,99385.31
2022-08-17T08:15:13.261Z,99385.72
2022-08-17T08:18:00.836Z,99384.97
2022-08-17T08:20:53.007Z,99379.09
2022-08-17T08:23:29.023Z,99365.63
2022-08-17T08:26:18.617Z,99366.69
2022-08-17T08:29:10.395Z,99362.06
2022-08-17T08:31:55.268Z,99346.59
2022-08-17T08:34:44.618Z,99360.91
2022-08-17T08:37:44.320Z,99351.59
2022-08-17T08:40:32.867Z,99353.66
2022-08-17T08:43:05.592Z,99361.34
2022-08-17T08:45:52.634Z,99359.81
2022-08-17T08:48:56.855Z,99359.38
2022-08-17T08:51:51.638Z,99370.88
2022-08-17T08:54:52.207Z,99370.13
2022-08-17T08:57:32.658Z,99340.44
2022-08-17T09:00:17.630Z,99347.91
2022-08-17T09:03:28.637Z,99357.34
2022-08-17T09:06:33.527Z,99335.34
2022-08-17T09:09:34.692Z,99333.59
2022-08-17T09:12:31.936Z,99332.13
2022-08-17T09:15:12.355Z,99335.09
2022-08-17T09:17:47.473Z,99350.28
2022-08-17T09:20:53.350Z,99359.25
2022-08-17T09:23:41.938Z,99314.72
2022-08-17T09:26:25.529Z,99346.56
2022-08-17T09:28:56.901Z,99347.97
2022-08-17T09:31:49.810Z,99327.50
2022-08-17T09:34:29.601Z,99353.25
2022-08-17T09:37:27.994Z,99341.03
2022-08-17T09:40:07.977Z,99332.88
2022-08-17T09:43:04.819Z,99333.88
2022-08-17T09:45:42.695Z,99318.75
2022-08-17T09:48:25.747Z,99328.78
2022-08-17T09:51:09.023Z,99307.22
2022-08-17T09:53:38.179Z,99311.38
2022-08-17T09:56:33.422Z,99319.47
2022-08-17T09:59:37.096Z,99300.03
2022-08-17T10:02:43.112Z,99298.84
2022-08-17T10:05:32.732Z,99289.03
2022-08-17T10:08:13.901Z,99302.28
2022-08-17T10:11:08.713Z,99287.00
2022-08-17T10:13:53.492Z,99301.97
2022-08-17T10:16:32.854Z,99283.22
2022-08-17T10:19:23.205Z,99307.00
2022-08-17T10:22:01.222Z,99314.63
2022-08-17T10:25:21.068Z,99313.94
2022-08-17T10:27:51.486Z,99303.63
2022-08-17T10:30:45.350Z,99293.47
2022-08-17T10:33:40.784Z,99314.09
2022-08-17T10:36:17.348Z,99291.69
2022-08-17T10:38:47.921Z,99307.00
2022-08-17T10:41:33.890Z,99293.47
2022-08-17T10:44:39.723Z,99326.63
2022-08-17T10:47:12.176Z,99309.59
2022-08-17T10:49:42.522Z,99314.38
2022-08-17T10:52:25.125Z,99294.19
2022-08-17T10:54:54.900Z,99277.06
2022-08-17T10:57:31.674Z,99291.09
2022-08-17T11:00:01.292Z,99302.59
2022-08-17T11:02:40.010Z,99329.34
2022-08-17T11:05:26.129Z,99311.19
2022-08-17T11:08:23.201Z,99334.53
2022-08-17T11:11:19.477Z,99307.13
2022-08-17T11:14:31.228Z,99331.41
2022-08-17T11:17:25.151Z,99312.59
2022-08-17T11:20:24.389Z,99325.59
2022-08-17T11:23:32.981Z,99305.22
2022-08-17T11:26:03.336Z,99332.69
2022-08-17T11:28:34.173Z,99314.78
2022-08-17T11:31:23.585Z,99306.94
2022-08-17T11:34:22.546Z,99330.53
2022-08-17T11:37:07.068Z,99322.66
2022-08-17T11:39:43.431Z,99314.31
2022-08-17T11:42:16.516Z,99330.25
2022-08-17T11:45:06.312Z,99307.69
2022-08-17T11:48:16.426Z,99317.50
2022-08-17T11:51:09.893Z,99329.06
2022-08-17T11:53:43.004Z,99326.09
2022-08-17T11:56:29.918Z,99315.28
2022-08-17T11:58:56.957Z,99322.66
2022-08-17T12:01:23.743Z,99313.09
2022-08-17T12:04:13.891Z,99355.56
2022-08-17T12:06:53.164Z,99321.44
2022-08-17T12:09:32.476Z,99308.44
2022-08-17T12:12:14.451Z,99328.31
2022-08-17T12:15:11.136Z,99324.56
2022-08-17T12:17:41.550Z,99316.00
2022-08-17T12:20:19.694Z,99329.75
2022-08-17T12:23:08.232Z,99324.34
2022-08-17T12:25:46.178Z,99332.97
2022-08-17T12:28:27.096Z,99348.66
2022-08-17T12:31:01.437Z,99332.66
2022-08-17T12:33:29.076Z,99340.97
2022-08-17T12:36:03.091Z,99336.84
2022-08-17T12:38:35.771Z,99321.88
2022-08-17T12:41:06.803Z,99348.13
2022-08-17T12:43:33.745Z,99340.47
2022-08-17T12:46:17.590Z,99351.63
2022-08-17T12:48:59.168Z,99372.63
2022-08-17T12:51:27.738Z,99351.53
2022-08-17T12:53:55.424Z,99361.31
2022-08-17T12:56:22.573Z,99367.91
2022-08-17T12:58:52.255Z,99372.81
2022-08-17T13:01:19.705Z,99355.16
2022-08-17T13:03:57.435Z,99372.81
2022-08-17T13:06:31.734Z,99360.03
2022-08-17T13:09:11.829Z,99328.88
2022-08-17T13:11:52.306Z,99340.84
2022-08-17T13:14:19.851Z,99349.47
2022-08-17T13:16:54.521Z,99342.16
2022-08-17T13:19:39.979Z,99354.66
2022-08-17T13:22:12.104Z,99347.38
2022-08-17T13:24:51.446Z,99354.44
2022-08-17T13:27:22.768Z,99370.13
2022-08-17T13:29:53.473Z,99368.91
2022-08-17T13:32:34.422Z,99383.41
2022-08-17T13:35:14.282Z,99389.53
2022-08-17T13:37:58.829Z,99349.59
2022-08-17T13:40:30.097Z,99366.28
2022-08-17T13:42:57.079Z,99356.19
2022-08-17T13:45:36.924Z,99379.03
2022-08-17T13:48:11.938Z,99359.13
2022-08-17T13:50:43.772Z,99346.16
2022-08-17T13:53:25.661Z,99373.16
2022-08-17T13:55:56.537Z,99346.16
2022-08-17T13:58:28.967Z,99366.78
2022-08-17T14:00:56.252Z,99356.75
2022-08-17T14:03:24.195Z,99350.59
2022-08-17T14:05:52.416Z,99341.78
2022-08-17T14:08:20.766Z,99347.69
2022-08-17T14:10:58.512Z,99335.69
2022-08-17T14:13:28.621Z,99339.06
2022-08-17T14:15:57.955Z,99348.91
2022-08-17T14:18:55.263Z,99342.22
2022-08-17T14:21:12.013Z,99347.66
2022-08-17T14:23:41.120Z,99345.72
2022-08-17T14:26:33.365Z,99325.81
2022-08-17T14:29:01.346Z,99307.22
2022-08-17T14:31:28.213Z,99306.97
2022-08-17T14:33:57.687Z,99340.31
2022-08-17T14:36:24.580Z,99332.94
2022-08-17T14:38:51.477Z,99327.56
2022-08-17T14:41:22.170Z,99348.19
2022-08-17T14:43:51.066Z,99332.00
2022-08-17T14:46:41.440Z,99338.88
2022-08-17T14:49:09.254Z,99319.22
2022-08-17T14:51:43.627Z,99347.22
2022-08-17T14:54:32.978Z,99333.97
2022-08-17T14:57:22.567Z,99345.47
2022-08-17T14:59:51.757Z,99336.16
2022-08-17T15:02:29.994Z,99358.00
2022-08-17T15:05:03.791Z,99371.75
2022-08-17T15:07:31.648Z,99368.25
2022-08-17T15:10:00.868Z,99367.28
2022-08-17T15:12:32.713Z,99369.78
2022-08-17T15:15:05.416Z,99368.47
2022-08-17T15:17:44.837Z,99365.31
2022-08-17T15:20:19.308Z,99362.84
2022-08-17T15:22:47.823Z,99373.88
2022-08-17T15:25:17.871Z,99358.16
2022-08-17T15:27:44.842Z,99356.19
2022-08-17T15:30:12.818Z,99343.88
2022-08-17T15:32:41.314Z,99373.34
2022-08-17T15:35:18.591Z,99324.47
2022-08-17T15:37:45.466Z,99329.31
2022-08-17T15:40:13.087Z,99356.19
2022-08-17T15:42:40.022Z,99324.03
2022-08-17T15:45:13.030Z,99318.28
2022-08-17T15:47:43.388Z,99327.06
2022-08-17T15:50:10.788Z,99282.44
2022-08-17T15:52:37.747Z,99322.00
2022-08-17T15:55:06.486Z,99320.75
2022-08-17T15:57:33.557Z,99316.59
2022-08-17T16:00:00.423Z,99312.00
2022-08-17T16:03:46.740Z,99305.16
2022-08-17T16:05:21.309Z,99323.53
2022-08-17T16:07:52.728Z,99304.72
2022-08-17T16:10:35.447Z,99307.47
2022-08-17T16:13:04.420Z,99306.22
2022-08-17T16:15:32.209Z,99286.25
2022-08-17T16:17:59.665Z,99292.00
2022-08-17T16:20:27.010Z,99286.63
2022-08-17T16:22:55.438Z,99283.16
2022-08-17T16:25:49.037Z,99267.25
2022-08-17T16:28:15.114Z,99276.03
2022-08-17T16:30:42.831Z,99280.84
2022-08-17T16:33:12.999Z,99284.47
2022-08-17T16:38:31.168Z,99294.06
2022-08-17T16:40:59.855Z,99300.78
2022-08-17T16:43:26.989Z,99272.22
2022-08-17T16:45:56.788Z,99277.78
2022-08-17T16:48:23.779Z,99283.44
2022-08-17T16:51:03.294Z,99289.03
2022-08-17T16:53:31.600Z,99301.03
2022-08-17T16:55:58.409Z,99285.81
2022-08-17T16:58:25.354Z,99288.56
2022-08-17T17:00:52.286Z,99282.84
2022-08-17T17:03:25.168Z,99266.72
2022-08-17T17:06:03.634Z,99269.34
2022-08-17T17:08:53.843Z,99264.38
2022-08-17T17:11:30.658Z,99238.28
2022-08-17T17:13:59.417Z,99237.53
2022-08-17T17:16:29.315Z,99266.91
2022-08-17T17:19:11.498Z,99254.97
2022-08-17T17:21:51.349Z,99248.44
2022-08-17T17:24:32.861Z,99262.41
2022-08-17T17:27:08.628Z,99258.72
2022-08-17T17:30:13.238Z,99269.56
2022-08-17T17:32:52.727Z,99249.59
2022-08-17T17:35:33.751Z,99268.13
2022-08-17T17:38:15.512Z,99283.53
2022-08-17T17:40:46.856Z,99286.28
2022-08-17T17:43:38.812Z,99297.41
2022-08-17T17:46:26.565Z,99281.72
2022-08-17T17:52:10.311Z,99299.69
2022-08-17T17:54:48.266Z,99305.22
2022-08-17T17:57:15.300Z,99304.47
2022-08-17T17:59:54.571Z,99302.34
2022-08-17T18:02:53.155Z,99297.22
2022-08-17T18:05:44.407Z,99298.13
2022-08-17T18:08:11.581Z,99287.44
2022-08-17T18:10:48.942Z,99302.31
2022-08-17T18:13:46.593Z,99282.53
2022-08-17T18:16:15.286Z,99284.94
2022-08-17T18:18:46.299Z,99291.25
2022-08-17T18:21:47.445Z,99283.13
2022-08-17T18:24:14.851Z,99291.44
2022-08-17T18:26:46.787Z,99287.00
2022-08-17T18:29:32.900Z,99311.63
2022-08-17T18:32:24.470Z,99299.44
2022-08-17T18:35:01.360Z,99296.09
2022-08-17T18:37:44.997Z,99303.69
2022-08-17T18:40:17.985Z,99312.78
2022-08-17T18:43:00.088Z,99338.03
2022-08-17T18:45:39.659Z,99314.88
2022-08-17T18:48:26.028Z,99321.81
2022-08-17T18:50:58.136Z,99319.97
2022-08-17T18:53:39.887Z,99316.25
2022-08-17T18:56:30.998Z,99327.56
2022-08-17T18:59:10.945Z,99323.75
2022-08-17T19:01:59.879Z,99323.84
2022-08-17T19:04:35.375Z,99305.91
2022-08-17T19:07:07.482Z,99338.56
2022-08-17T19:09:40.399Z,99326.63
2022-08-17T19:12:11.967Z,99330.41
2022-08-17T19:14:40.478Z,99324.31
2022-08-17T19:17:29.316Z,99337.66
2022-08-17T19:20:06.818Z,99310.53
2022-08-17T19:22:56.647Z,99316.75
2022-08-17T19:25:31.611Z,99318.88
2022-08-17T19:28:22.400Z,99325.25
2022-08-17T19:31:03.214Z,99304.53
2022-08-17T19:33:34.831Z,99314.06
2022-08-17T19:36:22.166Z,99302.50
2022-08-17T19:38:53.847Z,99305.66
2022-08-17T19:42:52.241Z,99290.75
2022-08-17T19:44:49.084Z,99290.00
2022-08-17T19:48:04.564Z,99264.88
2022-08-17T19:50:54.113Z,99262.94
2022-08-17T19:54:05.498Z,99255.06
2022-08-17T19:56:54.951Z,99261.00
2022-08-17T19:59:59.051Z,99266.72
2022-08-17T20:03:00.108Z,99244.53
2022-08-17T20:06:09.226Z,99251.75
2022-08-17T20:08:39.563Z,99267.25
2022-08-17T20:11:15.548Z,99250.53
2022-08-17T20:13:50.011Z,99236.94
2022-08-17T20:16:19.432Z,99252.25
2022-08-17T20:18:59.507Z,99220.09
2022-08-17T20:21:52.185Z,99238.25
2022-08-17T20:24:30.310Z,99240.50
2022-08-17T20:27:09.153Z,99234.50
2022-08-17T20:30:17.393Z,99224.25
2022-08-17T20:32:59.317Z,99234.31
2022-08-17T20:35:33.393Z,99243.56
2022-08-17T20:38:05.427Z,99238.50
2022-08-17T20:40:57.099Z,99244.03
2022-08-17T20:43:29.976Z,99253.78
2022-08-17T20:46:16.171Z,99238.81
2022-08-17T20:48:57.971Z,99245.84
2022-08-17T20:51:24.848Z,99248.22
2022-08-17T20:53:51.599Z,99242.16
2022-08-17T20:56:44.793Z,99241.69
2022-08-17T20:59:20.669Z,99254.50
2022-08-17T21:02:03.526Z,99241.34
2022-08-17T21:04:44.164Z,99246.16
2022-08-17T21:07:43.640Z,99234.56
2022-08-17T21:10:26.062Z,99230.84
2022-08-17T21:12:55.802Z,99237.88
2022-08-17T21:15:47.552Z,99232.75
2022-08-17T21:18:49.719Z,99237.31
2022-08-17T21:21:40.469Z,99233.16
2022-08-17T21:24:34.800Z,99220.41
2022-08-17T21:27:26.220Z,99238.50
2022-08-17T21:30:02.241Z,99244.22
2022-08-17T21:32:36.032Z,99232.97
2022-08-17T21:35:11.852Z,99219.84
2022-08-17T21:37:38.801Z,99217.81
2022-08-17T21:40:11.649Z,99229.63
2022-08-17T21:42:49.471Z,99201.38
2022-08-17T21:45:28.976Z,99227.13
2022-08-17T21:48:20.490Z,99214.06
2022-08-17T21:51:38.734Z,99216.19
2022-08-17T21:54:27.370Z,99221.00
2022-08-17T21:56:54.733Z,99209.31
2022-08-17T21:59:24.606Z,99211.97
2022-08-17T22:01:54.657Z,99216.19
2022-08-17T22:04:27.740Z,99222.66
2022-08-17T22:06:57.607Z,99200.59
2022-08-17T22:09:34.578Z,99219.72
2022-08-17T22:12:12.301Z,99224.28
2022-08-17T22:14:59.700Z,99220.03
2022-08-17T22:17:37.312Z,99235.63
2022-08-17T22:20:12.280Z,99227.06
2022-08-17T22:23:01.456Z,99229.97
2022-08-17T22:25:29.106Z,99223.16
2022-08-17T22:27:59.458Z,99215.91
2022-08-17T22:30:58.158Z,99225.75
2022-08-17T22:33:33.199Z,99229.47
2022-08-17T22:36:10.826Z,99205.81
2022-08-17T22:38:38.528Z,99217.28
2022-08-17T22:41:36.531Z,99204.69
2022-08-17T22:44:49.858Z,99206.28
2022-08-17T22:47:16.804Z,99193.44
2022-08-17T22:50:00.139Z,99188.25
2022-08-17T22:52:37.397Z,99190.84
2022-08-17T22:55:16.138Z,99189.94
2022-08-17T22:57:47.465Z,99174.88
2022-08-17T23:00:33.384Z,99160.75
2022-08-17T23:03:21.852Z,99176.09
2022-08-17T23:06:09.341Z,99182.38
2022-08-17T23:08:38.312Z,99166.19
2022-08-17T23:11:06.610Z,99172.75
2022-08-17T23:13:33.554Z,99188.81
2022-08-17T23:16:00.528Z,99159.09
2022-08-17T23:18:27.545Z,99164.00
2022-08-17T23:20:54.539Z,99134.53
2022-08-17T23:23:23.692Z,99152.53
2022-08-17T23:25:50.794Z,99169.44
2022-08-17T23:28:18.874Z,99170.28
2022-08-17T23:30:45.781Z,99170.09
2022-08-17T23:33:23.021Z,99159.47
2022-08-17T23:35:56.067Z,99153.28
2022-08-17T23:38:23.011Z,99162.97
2022-08-17T23:40:53.963Z,99166.94
2022-08-17T23:43:25.336Z,99135.84
2022-08-17T23:45:56.690Z,99131.69
2022-08-17T23:48:32.465Z,99147.84
2022-08-17T23:51:26.909Z,99148.19
2022-08-17T23:53:58.199Z,99108.31
2022-08-17T23:56:25.149Z,99134.44
2022-08-17T23:58:54.061Z,99144.50
